Time;durP1;ratioP1;P1;durP2;ratioP2;P2;SDS_P1;SDS_P2;PMS_P1;PMS_P2;Temp;Humidity;BMP_temperature;BMP_pressure;BME280_temperature;BME280_humidity;BME280_pressure;Samples;Min_cycle;Max_cycle;Signal;HPM_P1;HPM_P2
2022/03/16 00:00:00;;;;;;;5.55;4.22;;;23.90;99.90;;;;;;5022564;28;20059;-60
2022/03/16 00:02:27;;;;;;;3.90;3.13;;;23.90;99.90;;;;;;5020337;28;20041;-65
2022/03/16 00:04:56;;;;;;;5.13;4.07;;;23.90;99.90;;;;;;5021258;28;20186;-63
2022/03/16 00:07:23;;;;;;;5.30;4.07;;;23.90;99.90;;;;;;5028330;28;20049;-64
2022/03/16 00:09:50;;;;;;;4.70;2.20;;;24.00;99.90;;;;;;5021220;28;20050;-64
2022/03/16 00:12:18;;;;;;;2.35;1.33;;;24.20;99.90;;;;;;5021292;28;20451;-71
2022/03/16 00:14:45;;;;;;;2.70;1.77;;;24.40;99.90;;;;;;5021578;28;20472;-70
2022/03/16 00:17:12;;;;;;;3.83;1.67;;;24.50;99.90;;;;;;5015223;28;20109;-70
2022/03/16 00:19:40;;;;;;;2.17;1.00;;;24.60;99.90;;;;;;5018602;28;20405;-62
2022/03/16 00:22:08;;;;;;;2.40;0.98;;;24.80;99.90;;;;;;5020467;28;20072;-62
2022/03/16 00:24:35;;;;;;;3.22;1.35;;;25.00;99.90;;;;;;5013713;28;20024;-72
2022/03/16 00:27:02;;;;;;;3.63;1.70;;;25.20;99.90;;;;;;5024245;28;20942;-63
2022/03/16 00:29:29;;;;;;;3.55;1.30;;;25.40;99.90;;;;;;4319260;28;9999908;-62
2022/03/16 00:31:58;;;;;;;4.07;1.20;;;25.90;99.90;;;;;;4995700;28;20452;-62
2022/03/16 00:34:25;;;;;;;4.75;1.63;;;26.20;99.90;;;;;;5009840;28;20599;-69
2022/03/16 00:36:52;;;;;;;3.17;1.40;;;26.10;99.90;;;;;;5011087;28;20367;-69
2022/03/16 00:39:19;;;;;;;3.72;1.60;;;26.20;99.90;;;;;;5011332;28;20034;-71
2022/03/16 00:41:46;;;;;;;3.40;1.60;;;26.30;99.90;;;;;;5013510;28;20033;-62
2022/03/16 00:44:13;;;;;;;3.60;1.05;;;26.40;99.90;;;;;;5009707;28;20452;-69
2022/03/16 00:46:41;;;;;;;3.67;2.15;;;26.30;99.90;;;;;;5011382;28;20075;-72
2022/03/16 00:49:08;;;;;;;6.45;3.25;;;26.10;99.90;;;;;;5018165;28;20025;-63
2022/03/16 00:51:35;;;;;;;4.75;1.45;;;26.00;99.90;;;;;;5009682;28;20032;-63
2022/03/16 00:54:02;;;;;;;4.35;2.15;;;25.90;99.90;;;;;;5011757;28;20037;-69
2022/03/16 00:56:29;;;;;;;2.60;1.60;;;25.90;99.90;;;;;;5016669;28;20030;-67
2022/03/16 00:58:56;;;;;;;3.83;1.45;;;26.00;99.90;;;;;;5010010;28;20030;-64
2022/03/16 01:01:23;;;;;;;3.80;1.50;;;26.20;99.90;;;;;;5018758;28;20485;-62
2022/03/16 01:03:50;;;;;;;3.22;1.70;;;26.50;99.90;;;;;;5019295;28;20057;-62
2022/03/16 01:06:17;;;;;;;3.42;1.73;;;26.50;99.90;;;;;;5013651;28;20029;-70
2022/03/16 01:08:44;;;;;;;3.47;2.03;;;26.30;99.90;;;;;;5010522;28;20552;-71
2022/03/16 01:11:15;;;;;;;3.78;1.70;;;26.20;99.90;;;;;;5013530;28;20033;-71
2022/03/16 01:13:43;;;;;;;2.97;1.60;;;26.00;99.90;;;;;;5010131;28;20563;-65
2022/03/16 01:16:11;;;;;;;5.47;1.58;;;26.00;99.90;;;;;;4995019;28;20570;-64
2022/03/16 01:18:38;;;;;;;5.28;1.60;;;26.20;99.90;;;;;;5018017;28;20026;-69
2022/03/16 01:21:08;;;;;;;3.13;1.35;;;26.80;99.90;;;;;;5015432;28;20109;-68
2022/03/16 01:23:37;;;;;;;2.90;1.40;;;27.80;99.90;;;;;;5012934;28;20025;-67
2022/03/16 01:26:05;;;;;;;2.67;1.67;;;28.30;99.90;;;;;;5017244;28;20052;-65
2022/03/16 01:28:33;;;;;;;6.95;1.60;;;28.50;99.90;;;;;;5013452;28;20029;-67
2022/03/16 01:31:01;;;;;;;3.42;1.50;;;28.60;99.90;;;;;;5014005;28;20074;-63
2022/03/16 01:33:29;;;;;;;4.30;1.58;;;28.20;99.90;;;;;;5016314;28;20030;-69
2022/03/16 01:35:57;;;;;;;3.63;1.73;;;28.20;99.90;;;;;;5009197;28;20038;-70
2022/03/16 01:38:24;;;;;;;4.07;1.67;;;28.70;99.90;;;;;;5012198;28;20049;-61
2022/03/16 01:40:51;;;;;;;3.72;1.85;;;29.30;99.90;;;;;;5015095;28;20467;-69
2022/03/16 01:43:19;;;;;;;5.95;3.58;;;29.70;99.90;;;;;;5011221;28;20060;-61
2022/03/16 01:45:47;;;;;;;6.32;4.07;;;29.70;99.90;;;;;;5009605;28;20028;-69
2022/03/16 01:48:14;;;;;;;2.95;1.85;;;29.20;99.90;;;;;;5018047;28;20108;-68
2022/03/16 01:50:41;;;;;;;2.67;1.58;;;28.80;99.90;;;;;;5014261;28;20029;-64
2022/03/16 01:53:10;;;;;;;2.75;1.40;;;28.60;99.90;;;;;;5015788;28;20029;-64
2022/03/16 01:55:37;;;;;;;5.30;3.20;;;28.40;99.90;;;;;;5017019;28;20086;-63
2022/03/16 01:58:04;;;;;;;8.07;4.32;;;28.20;99.90;;;;;;5012167;28;20037;-62
2022/03/16 02:00:31;;;;;;;8.23;4.10;;;28.00;99.90;;;;;;5017086;28;20025;-68
2022/03/16 02:02:58;;;;;;;5.10;2.10;;;28.20;99.90;;;;;;5014636;28;20025;-69
2022/03/16 02:05:27;;;;;;;4.53;1.83;;;28.40;99.90;;;;;;5012508;28;20083;-62
2022/03/16 02:07:54;;;;;;;4.85;1.40;;;28.30;99.90;;;;;;5005956;28;20022;-66
2022/03/16 02:10:22;;;;;;;4.63;1.85;;;28.40;99.90;;;;;;5014350;28;20064;-61
2022/03/16 02:12:51;;;;;;;4.57;2.03;;;28.70;99.90;;;;;;5015841;28;20052;-63
2022/03/16 02:15:20;;;;;;;3.35;2.20;;;28.80;99.90;;;;;;5013079;28;20032;-63
2022/03/16 02:17:50;;;;;;;2.88;1.67;;;28.80;99.90;;;;;;5007644;28;20056;-69
2022/03/16 02:20:18;;;;;;;3.65;1.90;;;28.80;99.90;;;;;;5015932;28;20025;-61
2022/03/16 02:22:59;;;;;;;3.85;2.20;;;28.50;99.90;;;;;;5016116;28;20041;-63
2022/03/16 02:25:28;;;;;;;5.38;2.83;;;28.20;99.90;;;;;;5015835;28;20038;-69
2022/03/16 02:27:56;;;;;;;3.13;1.80;;;28.10;99.90;;;;;;5008814;28;20464;-65
2022/03/16 02:30:25;;;;;;;4.90;3.15;;;28.10;99.90;;;;;;5017994;28;20029;-69
2022/03/16 02:32:52;;;;;;;6.32;2.10;;;28.10;99.90;;;;;;5023015;28;20036;-63
2022/03/16 02:35:19;;;;;;;2.92;1.50;;;28.10;99.90;;;;;;5014475;28;20338;-66
2022/03/16 02:37:46;;;;;;;3.60;1.33;;;28.10;99.90;;;;;;5019188;28;20049;-64
2022/03/16 02:40:18;;;;;;;6.45;1.80;;;28.00;99.90;;;;;;5022047;28;20025;-64
2022/03/16 02:42:45;;;;;;;3.88;1.90;;;27.70;99.90;;;;;;5018586;28;20144;-63
2022/03/16 02:45:12;;;;;;;5.95;3.50;;;27.30;99.90;;;;;;5020723;28;20028;-68
2022/03/16 02:47:40;;;;;;;5.43;1.88;;;27.00;99.90;;;;;;5008382;28;20601;-69
2022/03/16 02:50:08;;;;;;;3.15;1.15;;;26.70;99.90;;;;;;5014290;28;20025;-63
2022/03/16 02:52:35;;;;;;;3.85;1.60;;;26.50;99.90;;;;;;5021224;28;20044;-64
2022/03/16 02:55:03;;;;;;;6.20;1.70;;;26.10;99.90;;;;;;5012081;28;20376;-67
2022/03/16 02:57:31;;;;;;;2.88;1.40;;;25.90;99.90;;;;;;5018140;28;20128;-69
2022/03/16 02:59:57;;;;;;;4.28;1.63;;;26.00;99.90;;;;;;5012682;28;20497;-68
2022/03/16 03:02:24;;;;;;;3.88;1.65;;;26.20;99.90;;;;;;5015242;28;20036;-68
2022/03/16 03:04:51;;;;;;;4.05;1.50;;;26.00;99.90;;;;;;5017101;28;20388;-68
2022/03/16 03:07:18;;;;;;;5.15;3.13;;;26.40;99.90;;;;;;5014554;28;20080;-69
2022/03/16 03:09:45;;;;;;;4.20;2.20;;;26.90;99.90;;;;;;5015670;28;20014;-69
2022/03/16 03:12:12;;;;;;;7.32;4.43;;;27.20;99.90;;;;;;5018606;28;20033;-65
2022/03/16 03:14:39;;;;;;;4.75;1.80;;;27.50;99.90;;;;;;4994527;28;20033;-70
2022/03/16 03:17:06;;;;;;;3.38;1.45;;;27.90;99.90;;;;;;5013271;28;20444;-70
2022/03/16 03:19:33;;;;;;;5.72;1.77;;;27.60;99.90;;;;;;5011436;28;20022;-64
2022/03/16 03:22:00;;;;;;;3.20;1.63;;;27.30;99.90;;;;;;5008316;28;20029;-67
2022/03/16 03:24:27;;;;;;;3.33;1.88;;;27.20;99.90;;;;;;5015527;28;20023;-69
2022/03/16 03:26:54;;;;;;;5.20;1.77;;;27.30;99.90;;;;;;5009859;28;20021;-63
2022/03/16 03:29:21;;;;;;;6.75;1.60;;;27.60;99.90;;;;;;5018472;28;20061;-64
2022/03/16 03:31:48;;;;;;;4.88;1.50;;;28.00;99.90;;;;;;5008994;28;20029;-73
2022/03/16 03:34:15;;;;;;;3.90;1.63;;;28.70;99.90;;;;;;5018108;28;20049;-68
2022/03/16 03:36:42;;;;;;;3.42;1.63;;;29.30;99.90;;;;;;5009648;28;21520;-63
2022/03/16 03:39:10;;;;;;;4.05;1.65;;;29.20;99.90;;;;;;5006825;28;20052;-63
2022/03/16 03:41:37;;;;;;;2.70;1.80;;;29.20;99.90;;;;;;5012768;28;20516;-68
2022/03/16 03:44:04;;;;;;;2.83;1.85;;;29.00;99.90;;;;;;5014776;28;20022;-64
2022/03/16 03:46:31;;;;;;;3.47;1.95;;;28.90;99.90;;;;;;5014461;28;20026;-63
2022/03/16 03:48:58;;;;;;;3.35;1.88;;;28.70;99.90;;;;;;5015972;28;20022;-63
2022/03/16 03:51:25;;;;;;;5.80;2.00;;;28.60;99.90;;;;;;5015815;28;20034;-66
2022/03/16 03:53:52;;;;;;;2.85;1.40;;;29.00;99.90;;;;;;5001374;28;20029;-63
2022/03/16 03:56:19;;;;;;;5.22;1.73;;;28.70;99.90;;;;;;5008934;28;20030;-64
2022/03/16 03:58:46;;;;;;;4.50;1.65;;;28.30;99.90;;;;;;5014520;28;20029;-63
2022/03/16 04:01:15;;;;;;;3.53;1.65;;;28.00;99.90;;;;;;5005521;28;20042;-68
2022/03/16 04:03:43;;;;;;;3.58;1.60;;;27.60;99.90;;;;;;5007033;28;20026;-63
2022/03/16 04:06:11;;;;;;;2.38;1.08;;;27.00;99.90;;;;;;5012664;28;20402;-65
2022/03/16 04:08:38;;;;;;;2.55;1.25;;;26.60;99.90;;;;;;5015708;28;20018;-63
2022/03/16 04:11:05;;;;;;;4.00;1.30;;;26.20;99.90;;;;;;5011193;28;20022;-66
2022/03/16 04:13:32;;;;;;;4.22;1.40;;;25.80;99.90;;;;;;5016681;28;20174;-63
2022/03/16 04:15:59;;;;;;;3.58;1.73;;;25.60;99.90;;;;;;5019912;28;20052;-66
2022/03/16 04:18:27;;;;;;;1.70;1.40;;;25.40;99.90;;;;;;5014877;28;20037;-65
2022/03/16 04:20:54;;;;;;;2.92;1.20;;;25.40;99.90;;;;;;5011177;28;20636;-65
2022/03/16 04:23:22;;;;;;;2.25;1.45;;;25.20;99.90;;;;;;5012779;28;20036;-62
2022/03/16 04:25:48;;;;;;;3.65;1.75;;;25.00;99.90;;;;;;5006622;28;20511;-64
2022/03/16 04:28:15;;;;;;;4.43;1.88;;;24.80;99.90;;;;;;5008090;28;20041;-63
2022/03/16 04:30:43;;;;;;;4.47;1.70;;;24.70;99.90;;;;;;5017244;28;20033;-66
2022/03/16 04:33:10;;;;;;;2.83;1.40;;;24.60;99.90;;;;;;5015452;28;20487;-62
2022/03/16 04:35:37;;;;;;;5.40;1.65;;;24.40;99.90;;;;;;5017830;28;20127;-62
2022/03/16 04:38:03;;;;;;;4.20;1.40;;;24.30;99.90;;;;;;5017515;28;20111;-64
2022/03/16 04:40:30;;;;;;;5.75;1.42;;;24.30;99.90;;;;;;5017758;28;20034;-65
2022/03/16 04:42:57;;;;;;;5.25;1.95;;;24.30;99.90;;;;;;5009637;28;20030;-66
2022/03/16 04:45:24;;;;;;;5.75;1.85;;;24.30;99.90;;;;;;5011081;28;20033;-66
2022/03/16 04:47:52;;;;;;;5.18;1.77;;;24.40;99.90;;;;;;5011121;28;20388;-67
2022/03/16 04:50:19;;;;;;;7.40;1.90;;;24.40;99.90;;;;;;5017357;28;20033;-64
2022/03/16 04:52:48;;;;;;;6.75;2.03;;;24.20;99.90;;;;;;5012293;28;20540;-63
2022/03/16 04:55:16;;;;;;;6.15;2.60;;;24.20;99.90;;;;;;5017502;28;20370;-65
2022/03/16 04:57:43;;;;;;;5.88;2.08;;;24.10;99.90;;;;;;5015120;28;20101;-63
2022/03/16 05:00:10;;;;;;;7.90;2.38;;;23.90;99.90;;;;;;5019563;28;20618;-63
2022/03/16 05:02:37;;;;;;;4.88;2.05;;;23.80;99.90;;;;;;5016318;28;20380;-63
2022/03/16 05:05:05;;;;;;;7.68;2.22;;;23.60;99.90;;;;;;5014585;28;20301;-63
2022/03/16 05:07:32;;;;;;;6.80;2.40;;;23.50;99.90;;;;;;5011455;28;20108;-64
2022/03/16 05:09:59;;;;;;;5.57;2.25;;;23.50;99.90;;;;;;5015454;28;20028;-62
2022/03/16 05:12:26;;;;;;;7.03;2.45;;;23.40;99.90;;;;;;5018548;28;20084;-63
2022/03/16 05:14:53;;;;;;;7.68;2.65;;;23.30;99.90;;;;;;5010585;28;20032;-64
2022/03/16 05:17:20;;;;;;;6.47;3.17;;;23.30;99.90;;;;;;5015349;28;20029;-63
2022/03/16 05:19:48;;;;;;;8.80;6.10;;;23.20;99.90;;;;;;5015750;28;20037;-63
2022/03/16 05:22:15;;;;;;;9.02;3.00;;;23.10;99.90;;;;;;5012432;28;20037;-64
2022/03/16 05:24:42;;;;;;;6.70;2.35;;;23.00;99.90;;;;;;5012607;28;20041;-62
2022/03/16 05:27:09;;;;;;;6.97;2.60;;;22.90;99.90;;;;;;5003947;28;20033;-62
2022/03/16 05:29:36;;;;;;;6.70;2.17;;;22.80;99.90;;;;;;5011007;28;20152;-65
2022/03/16 05:32:03;;;;;;;6.88;1.92;;;22.50;99.90;;;;;;5012591;28;20037;-64
2022/03/16 05:34:30;;;;;;;5.55;2.13;;;22.40;99.90;;;;;;5013772;28;20040;-64
2022/03/16 05:36:57;;;;;;;4.63;1.83;;;22.30;99.90;;;;;;5014170;28;20053;-65
2022/03/16 05:39:24;;;;;;;6.10;4.18;;;22.30;99.90;;;;;;5017774;28;20025;-62
2022/03/16 05:41:51;;;;;;;6.78;2.00;;;22.10;99.90;;;;;;5016902;28;20041;-64
2022/03/16 05:44:18;;;;;;;7.18;2.47;;;22.20;99.90;;;;;;5010748;28;20032;-61
2022/03/16 05:46:45;;;;;;;4.43;1.77;;;22.10;99.90;;;;;;5014930;28;20025;-61
2022/03/16 05:49:12;;;;;;;9.10;2.33;;;22.10;99.90;;;;;;5012069;28;20101;-62
2022/03/16 05:51:39;;;;;;;6.38;2.00;;;22.10;99.90;;;;;;5015056;28;20029;-61
2022/03/16 05:54:06;;;;;;;4.47;1.77;;;22.20;99.90;;;;;;5010247;28;20492;-62
2022/03/16 05:56:34;;;;;;;8.50;4.43;;;22.30;99.90;;;;;;5014320;28;20131;-61
2022/03/16 05:59:01;;;;;;;12.88;10.40;;;22.40;99.90;;;;;;5008609;28;20030;-64
2022/03/16 06:01:28;;;;;;;12.70;10.77;;;22.50;99.90;;;;;;5007184;28;20026;-61
2022/03/16 06:03:54;;;;;;;9.95;7.15;;;22.50;99.90;;;;;;5012023;28;21295;-62
2022/03/16 06:06:21;;;;;;;7.47;3.33;;;22.50;99.90;;;;;;5021977;28;20083;-62
2022/03/16 06:08:48;;;;;;;8.20;3.15;;;22.60;99.90;;;;;;5004143;28;20104;-63
2022/03/16 06:11:15;;;;;;;4.85;1.90;;;22.70;99.90;;;;;;5013604;28;20383;-62
2022/03/16 06:13:42;;;;;;;5.07;2.08;;;22.80;99.90;;;;;;5014719;28;20036;-62
2022/03/16 06:16:09;;;;;;;4.65;1.83;;;22.90;99.90;;;;;;5014302;28;20394;-63
2022/03/16 06:18:36;;;;;;;5.80;1.90;;;23.00;99.90;;;;;;5015791;28;20036;-63
2022/03/16 06:21:03;;;;;;;4.75;2.20;;;23.00;99.90;;;;;;5018129;28;20048;-64
2022/03/16 06:23:30;;;;;;;6.05;2.65;;;23.10;99.90;;;;;;5019517;28;20136;-64
2022/03/16 06:25:57;;;;;;;9.23;4.53;;;23.20;99.90;;;;;;5016976;28;20030;-64
2022/03/16 06:28:24;;;;;;;9.48;7.00;;;23.20;99.90;;;;;;5015696;28;20029;-62
2022/03/16 06:30:51;;;;;;;12.32;7.30;;;23.30;99.90;;;;;;5015815;28;20482;-63
2022/03/16 06:33:18;;;;;;;12.27;10.98;;;23.30;99.90;;;;;;5012541;28;20029;-64
2022/03/16 06:35:45;;;;;;;12.48;10.95;;;23.40;99.90;;;;;;5016048;28;20033;-61
2022/03/16 06:38:12;;;;;;;9.43;5.10;;;23.50;99.90;;;;;;5014229;28;20037;-64
2022/03/16 06:40:39;;;;;;;7.97;2.22;;;23.50;99.90;;;;;;5014572;28;20025;-65
2022/03/16 06:43:06;;;;;;;3.53;1.48;;;23.40;99.90;;;;;;5014066;28;20190;-61
2022/03/16 06:45:34;;;;;;;5.07;1.67;;;23.40;99.90;;;;;;5017114;28;21008;-62
2022/03/16 06:48:03;;;;;;;5.00;1.70;;;23.30;99.90;;;;;;5015928;28;20033;-62
2022/03/16 06:50:30;;;;;;;5.85;1.75;;;23.30;99.90;;;;;;5015242;28;20052;-65
2022/03/16 06:52:58;;;;;;;9.70;2.05;;;23.20;99.90;;;;;;5014808;28;20459;-61
2022/03/16 06:55:29;;;;;;;5.90;2.03;;;23.20;99.90;;;;;;5014724;28;20034;-67
2022/03/16 06:57:56;;;;;;;4.18;1.92;;;23.10;99.90;;;;;;5016313;28;20022;-68
2022/03/16 07:00:23;;;;;;;8.40;1.83;;;23.10;99.90;;;;;;5015222;28;20028;-68
2022/03/16 07:02:57;;;;;;;7.75;2.05;;;23.30;99.90;;;;;;5014385;28;20032;-67
2022/03/16 07:05:45;;;;;;;4.35;1.50;;;23.40;99.90;;;;;;5014021;28;20066;-67
2022/03/16 07:08:14;;;;;;;5.13;2.10;;;23.70;99.90;;;;;;5014548;28;20156;-66
2022/03/16 07:10:43;;;;;;;6.32;1.90;;;23.90;99.90;;;;;;5015679;28;20168;-66
2022/03/16 07:13:13;;;;;;;6.03;2.55;;;24.00;99.90;;;;;;5014211;28;20026;-64
2022/03/16 07:15:44;;;;;;;5.82;1.83;;;24.10;99.90;;;;;;5015807;28;20428;-68
2022/03/16 07:18:12;;;;;;;7.05;1.83;;;24.20;99.90;;;;;;5014510;28;20026;-65
2022/03/16 07:20:39;;;;;;;6.43;2.25;;;24.40;99.90;;;;;;5012942;28;20138;-64
2022/03/16 07:23:12;;;;;;;8.75;2.25;;;24.20;99.90;;;;;;5015484;28;20678;-67
2022/03/16 07:25:39;;;;;;;;;;;24.30;99.90;;;;;;5013705;28;21168;-65
2022/03/16 07:28:07;;;;;;;5.63;2.05;;;24.30;99.90;;;;;;5013091;28;19917;-65
2022/03/16 07:30:34;;;;;;;7.20;2.05;;;24.30;99.90;;;;;;5019031;28;20029;-66
2022/03/16 07:33:02;;;;;;;10.20;2.17;;;24.60;99.90;;;;;;5012985;28;20496;-67
2022/03/16 07:35:29;;;;;;;7.85;1.90;;;24.80;99.90;;;;;;5013782;28;20021;-67
2022/03/16 07:37:57;;;;;;;5.38;2.25;;;24.80;99.90;;;;;;5020812;28;20053;-67
2022/03/16 07:40:25;;;;;;;6.32;1.95;;;24.60;99.90;;;;;;5019936;28;20037;-72
2022/03/16 07:42:52;;;;;;;8.18;1.80;;;24.60;99.90;;;;;;5017506;28;20446;-68
2022/03/16 07:45:20;;;;;;;4.97;1.90;;;24.80;99.90;;;;;;5021273;28;20115;-70
2022/03/16 07:47:52;;;;;;;4.13;2.10;;;25.00;99.90;;;;;;5019856;28;20312;-67
2022/03/16 07:50:20;;;;;;;;;;;25.20;99.90;;;;;;5017935;28;20025;-66
2022/03/16 07:52:47;;;;;;;4.70;1.80;;;25.10;99.90;;;;;;5015867;28;19924;-68
2022/03/16 07:55:15;;;;;;;4.15;1.90;;;24.80;99.90;;;;;;5020739;28;20037;-67
2022/03/16 07:57:43;;;;;;;8.50;2.38;;;24.60;99.90;;;;;;5019494;28;20055;-64
2022/03/16 08:00:12;;;;;;;6.03;2.33;;;24.40;99.90;;;;;;5018034;28;20056;-65
2022/03/16 08:02:40;;;;;;;7.63;2.20;;;24.10;99.90;;;;;;5019452;28;20041;-65
2022/03/16 08:05:08;;;;;;;7.10;2.42;;;23.90;99.90;;;;;;5018625;28;20410;-68
2022/03/16 08:07:36;;;;;;;6.28;2.10;;;23.60;99.90;;;;;;5018265;28;20033;-67
2022/03/16 08:10:04;;;;;;;6.47;2.42;;;23.30;99.90;;;;;;5020776;28;20026;-63
2022/03/16 08:12:31;;;;;;;8.60;2.33;;;23.30;99.90;;;;;;5000446;28;20124;-68
2022/03/16 08:15:00;;;;;;;7.80;2.63;;;23.20;99.90;;;;;;5019661;28;20120;-67
2022/03/16 08:17:27;;;;;;;8.48;2.10;;;23.10;99.90;;;;;;5019259;28;20358;-64
2022/03/16 08:19:54;;;;;;;5.95;2.20;;;22.90;99.90;;;;;;5021679;28;20444;-67
2022/03/16 08:22:32;;;;;;;7.93;2.35;;;22.80;99.90;;;;;;5016491;28;20051;-67
2022/03/16 08:25:02;;;;;;;7.05;2.65;;;22.60;99.90;;;;;;5020279;28;20032;-66
2022/03/16 08:27:29;;;;;;;7.53;2.13;;;22.50;99.90;;;;;;5016442;28;20498;-67
2022/03/16 08:29:57;;;;;;;10.73;3.00;;;22.30;99.90;;;;;;5019352;28;20025;-69
2022/03/16 08:32:24;;;;;;;6.38;2.00;;;22.30;99.90;;;;;;5002294;28;20091;-67
2022/03/16 08:34:52;;;;;;;9.55;2.53;;;22.20;99.90;;;;;;5021477;28;20041;-67
2022/03/16 08:37:19;;;;;;;8.10;2.10;;;22.10;99.90;;;;;;5019220;28;20053;-64
2022/03/16 08:39:47;;;;;;;10.00;2.72;;;22.10;99.90;;;;;;5018933;28;20256;-65
2022/03/16 08:42:15;;;;;;;8.60;2.60;;;22.00;99.90;;;;;;5019964;28;20021;-66
2022/03/16 08:44:43;;;;;;;7.10;2.83;;;21.90;99.90;;;;;;5019787;28;20032;-64
2022/03/16 08:47:11;;;;;;;7.03;2.00;;;21.70;99.90;;;;;;5025079;28;20395;-66
2022/03/16 08:49:38;;;;;;;6.95;2.58;;;21.50;99.90;;;;;;5020374;28;20033;-66
2022/03/16 08:52:06;;;;;;;8.95;2.67;;;21.40;99.90;;;;;;5019531;28;20042;-66
2022/03/16 08:54:33;;;;;;;9.10;2.88;;;21.40;99.90;;;;;;5023297;28;21313;-66
2022/03/16 08:57:01;;;;;;;8.55;2.60;;;21.40;99.90;;;;;;5018511;28;20040;-66
2022/03/16 08:59:27;;;;;;;9.77;2.83;;;21.50;99.90;;;;;;5017405;28;20025;-67
2022/03/16 09:01:54;;;;;;;6.68;2.38;;;21.60;99.90;;;;;;5019542;28;20052;-66
2022/03/16 09:04:21;;;;;;;9.55;3.17;;;21.60;99.90;;;;;;5017872;28;20026;-67
2022/03/16 09:06:48;;;;;;;10.80;2.83;;;21.60;99.90;;;;;;5017426;28;20032;-65
2022/03/16 09:09:16;;;;;;;6.32;2.60;;;21.60;99.90;;;;;;5020167;28;20314;-64
2022/03/16 09:11:42;;;;;;;7.70;2.50;;;21.60;99.90;;;;;;5017562;28;20099;-65
2022/03/16 09:14:09;;;;;;;13.10;2.60;;;21.60;99.90;;;;;;5018762;28;20034;-65
2022/03/16 09:16:36;;;;;;;5.75;2.30;;;21.50;99.90;;;;;;5018839;28;20033;-64
2022/03/16 09:19:03;;;;;;;8.00;2.22;;;21.50;99.90;;;;;;5018345;28;20037;-65
2022/03/16 09:21:30;;;;;;;8.35;2.53;;;21.40;99.90;;;;;;5018044;28;20335;-66
2022/03/16 09:23:57;;;;;;;9.05;2.17;;;21.40;99.90;;;;;;5019235;28;20022;-64
2022/03/16 09:26:24;;;;;;;8.88;2.15;;;21.30;99.90;;;;;;5017341;28;20025;-68
2022/03/16 09:28:52;;;;;;;11.75;2.65;;;21.30;99.90;;;;;;5019020;28;20079;-65
2022/03/16 09:31:20;;;;;;;8.32;2.25;;;21.30;99.90;;;;;;5018728;28;20087;-67
2022/03/16 09:33:48;;;;;;;10.65;2.35;;;21.30;99.90;;;;;;5019866;28;20022;-66
2022/03/16 09:36:15;;;;;;;9.98;2.80;;;21.40;99.90;;;;;;5018539;28;20025;-65
2022/03/16 09:38:42;;;;;;;8.02;2.17;;;21.30;99.90;;;;;;5020527;28;20029;-64
2022/03/16 09:41:09;;;;;;;8.65;2.25;;;21.30;99.90;;;;;;5016826;28;20025;-66
2022/03/16 09:43:37;;;;;;;11.60;2.88;;;21.20;99.90;;;;;;5019104;28;20063;-67
2022/03/16 09:46:19;;;;;;;10.27;2.72;;;21.10;99.90;;;;;;5018635;28;20446;-66
2022/03/16 09:48:46;;;;;;;11.00;4.10;;;21.10;99.90;;;;;;5019890;28;20079;-66
2022/03/16 09:51:19;;;;;;;12.85;3.15;;;21.10;99.90;;;;;;5019583;28;20308;-69
2022/03/16 09:53:46;;;;;;;6.80;2.33;;;21.10;99.90;;;;;;5017082;28;20538;-69
2022/03/16 09:56:14;;;;;;;9.48;2.72;;;21.00;99.90;;;;;;5017485;28;20467;-65
2022/03/16 09:58:44;;;;;;;6.43;2.10;;;21.00;99.90;;;;;;5015941;28;20502;-69
2022/03/16 10:01:11;;;;;;;8.85;2.90;;;21.00;99.90;;;;;;5019139;28;20021;-68
2022/03/16 10:03:38;;;;;;;13.88;2.80;;;21.00;99.90;;;;;;5022710;28;20120;-64
2022/03/16 10:06:09;;;;;;;10.73;3.20;;;21.00;99.90;;;;;;5005051;28;20377;-68
2022/03/16 10:08:37;;;;;;;9.63;2.65;;;21.00;99.90;;;;;;5021062;28;20025;-66
2022/03/16 10:13:57;;;;;;;8.20;2.65;;;20.90;99.90;;;;;;5023395;28;20099;-66
2022/03/16 10:16:25;;;;;;;8.90;2.90;;;20.80;99.90;;;;;;5019224;28;20103;-64
2022/03/16 10:18:57;;;;;;;22.70;10.98;;;20.80;99.90;;;;;;5015984;28;20064;-69
2022/03/16 10:21:30;;;;;;;7.20;2.80;;;20.70;99.90;;;;;;5008704;28;20037;-68
2022/03/16 10:24:03;;;;;;;9.77;2.95;;;20.70;99.90;;;;;;5017107;28;20029;-69
2022/03/16 10:26:30;;;;;;;10.07;3.53;;;20.60;99.90;;;;;;5016353;28;20018;-66
2022/03/16 10:29:04;;;;;;;11.40;3.15;;;20.50;99.90;;;;;;5017844;28;20502;-66
2022/03/16 10:31:31;;;;;;;8.13;3.15;;;20.50;99.90;;;;;;5015285;28;20560;-64
2022/03/16 10:34:01;;;;;;;13.90;3.38;;;20.50;99.90;;;;;;5015678;28;20423;-65
2022/03/16 10:36:28;;;;;;;11.68;3.25;;;20.50;99.90;;;;;;5026741;23;20045;-68
2022/03/16 10:39:03;;;;;;;9.02;2.67;;;20.50;99.90;;;;;;5013817;28;20283;-68
2022/03/16 10:47:17;;;;;;;10.60;3.28;;;20.50;99.90;;;;;;5015857;28;20036;-66
2022/03/16 10:49:45;;;;;;;9.10;2.80;;;20.40;99.90;;;;;;5020977;28;20073;-67
2022/03/16 10:52:20;;;;;;;10.55;3.70;;;20.30;99.90;;;;;;5018216;28;20025;-64
2022/03/16 10:54:51;;;;;;;9.50;3.85;;;20.20;99.90;;;;;;5014149;28;20104;-68
2022/03/16 10:57:18;;;;;;;8.10;4.07;;;20.30;99.90;;;;;;5012673;28;20030;-67
2022/03/16 10:59:50;;;;;;;7.60;3.38;;;20.20;99.90;;;;;;5016271;28;20022;-66
2022/03/16 11:02:19;;;;;;;11.93;4.75;;;20.20;99.90;;;;;;5016772;28;20025;-64
2022/03/16 11:04:50;;;;;;;8.77;3.20;;;20.20;99.90;;;;;;5018474;28;20019;-67
2022/03/16 11:07:18;;;;;;;11.75;3.50;;;20.10;99.90;;;;;;5019271;28;20034;-63
2022/03/16 11:09:48;;;;;;;6.88;2.95;;;20.00;99.90;;;;;;5016883;28;20032;-63
2022/03/16 11:15:07;;;;;;;13.30;3.08;;;19.80;99.90;;;;;;5022420;28;20176;-64
2022/03/16 11:17:37;;;;;;;10.18;2.42;;;19.70;99.90;;;;;;5024223;28;20037;-62
2022/03/16 11:20:10;;;;;;;10.00;2.30;;;19.60;99.90;;;;;;5017049;28;20063;-64
2022/03/16 11:26:11;;;;;;;7.40;2.30;;;19.50;99.90;;;;;;5022415;28;20064;-64
2022/03/16 11:29:07;;;;;;;8.65;2.25;;;19.50;99.90;;;;;;5023521;28;20067;-62
2022/03/16 11:31:34;;;;;;;11.23;2.67;;;19.40;99.90;;;;;;5022868;28;20048;-65
2022/03/16 11:34:08;;;;;;;5.85;2.38;;;19.30;99.90;;;;;;5020278;28;20025;-66
2022/03/16 11:36:43;;;;;;;15.18;3.97;;;19.30;99.90;;;;;;5021403;28;20054;-65
2022/03/16 11:39:22;;;;;;;10.60;3.00;;;19.20;99.90;;;;;;5023826;28;20504;-61
2022/03/16 11:41:54;;;;;;;10.55;3.03;;;19.20;99.90;;;;;;5022751;28;20044;-62
2022/03/16 11:44:26;;;;;;;11.75;2.58;;;19.10;99.90;;;;;;5020995;28;20025;-64
2022/03/16 11:46:53;;;;;;;9.80;2.38;;;19.10;99.90;;;;;;5025553;28;20025;-61
2022/03/16 11:49:29;;;;;;;8.57;3.15;;;19.10;99.90;;;;;;5022084;28;20021;-61
2022/03/16 11:52:04;;;;;;;7.25;2.60;;;19.00;99.90;;;;;;5021096;28;20036;-64
2022/03/16 11:54:40;;;;;;;15.90;3.00;;;19.00;99.90;;;;;;5021655;28;20037;-64
2022/03/16 11:57:08;;;;;;;11.50;3.42;;;19.00;99.90;;;;;;5021336;28;20059;-62
2022/03/16 11:59:44;;;;;;;11.45;2.28;;;19.10;99.90;;;;;;5018787;28;20034;-62
2022/03/16 12:02:21;;;;;;;8.40;2.17;;;19.00;99.90;;;;;;5022318;28;20063;-64
2022/03/16 12:04:49;;;;;;;7.45;2.35;;;19.00;99.90;;;;;;5020268;28;20530;-61
2022/03/16 12:07:22;;;;;;;7.43;2.42;;;18.90;99.90;;;;;;5020143;28;20022;-62
2022/03/16 12:09:52;;;;;;;9.98;2.80;;;18.90;99.90;;;;;;5019152;28;20399;-61
2022/03/16 12:12:54;;;;;;;10.25;2.47;;;18.90;99.90;;;;;;5025101;28;20048;-62
2022/03/16 12:15:37;;;;;;;9.57;2.17;;;18.90;99.90;;;;;;5018345;28;20065;-63
2022/03/16 12:18:07;;;;;;;11.52;2.47;;;18.90;99.90;;;;;;5020628;28;20026;-62
2022/03/16 12:20:42;;;;;;;8.95;2.70;;;18.80;99.90;;;;;;5016709;28;20022;-65
2022/03/16 12:23:18;;;;;;;7.97;2.30;;;18.80;99.90;;;;;;5021993;28;20021;-65
2022/03/16 12:25:50;;;;;;;11.73;2.80;;;18.80;99.90;;;;;;5017502;28;20072;-64
2022/03/16 12:31:08;;;;;;;12.85;3.47;;;18.90;99.90;;;;;;5023337;28;20033;-65
2022/03/16 12:33:42;;;;;;;16.73;6.70;;;18.90;99.90;;;;;;5021114;28;20120;-61
2022/03/16 12:36:11;;;;;;;20.40;10.48;;;19.00;99.90;;;;;;5019072;28;20035;-64
2022/03/16 12:38:41;;;;;;;8.95;3.67;;;18.90;99.90;;;;;;5019742;28;20041;-66
2022/03/16 12:43:58;;;;;;;8.45;3.55;;;18.90;99.90;;;;;;5021300;28;20110;-62
2022/03/16 12:46:34;;;;;;;11.93;3.38;;;18.80;99.90;;;;;;5020891;28;20026;-65
2022/03/16 12:49:04;;;;;;;8.65;2.47;;;18.90;99.90;;;;;;5020593;28;20022;-65
2022/03/16 12:51:53;;;;;;;9.75;3.53;;;18.80;99.90;;;;;;5022927;28;20511;-62
2022/03/16 12:54:26;;;;;;;9.60;2.92;;;18.80;99.90;;;;;;5017823;28;20021;-63
2022/03/16 12:56:58;;;;;;;16.75;6.07;;;18.80;99.90;;;;;;5019929;28;20057;-62
2022/03/16 12:59:28;;;;;;;11.82;5.70;;;18.80;99.90;;;;;;5020194;28;20052;-66
2022/03/16 13:02:01;;;;;;;13.30;5.18;;;18.70;99.90;;;;;;5019976;28;20040;-66
2022/03/16 13:04:29;;;;;;;10.70;3.35;;;18.80;99.90;;;;;;5019706;28;20073;-66
2022/03/16 13:06:58;;;;;;;9.32;3.55;;;18.80;99.90;;;;;;5019748;28;20056;-65
2022/03/16 13:09:33;;;;;;;14.85;4.60;;;18.90;99.90;;;;;;5021036;28;20025;-66
2022/03/16 13:12:11;;;;;;;11.85;8.05;;;18.90;99.90;;;;;;5019806;28;20025;-62